sensor_id;sensor_type;location;lat;lon;timestamp;temperature;humidity
28069;DHT22;15382;47.578;8.086;2024-03-25T00:05:31;4.00;99.90
28069;DHT22;15382;47.578;8.086;2024-03-25T00:15:32;3.90;99.90
28069;DHT22;15382;47.578;8.086;2024-03-25T00:25:34;3.90;99.90
28069;DHT22;15382;47.578;8.086;2024-03-25T00:35:35;3.90;99.90
28069;DHT22;15382;47.578;8.086;2024-03-25T00:45:35;3.90;99.90
28069;DHT22;15382;47.578;8.086;2024-03-25T00:55:37;4.00;99.90
28069;DHT22;15382;47.578;8.086;2024-03-25T01:05:37;4.10;99.90
28069;DHT22;15382;47.578;8.086;2024-03-25T01:15:38;4.10;99.90
28069;DHT22;15382;47.578;8.086;2024-03-25T01:25:39;4.00;99.90
28069;DHT22;15382;47.578;8.086;2024-03-25T01:35:40;4.00;99.90
28069;DHT22;15382;47.578;8.086;2024-03-25T01:45:40;4.10;99.90
28069;DHT22;15382;47.578;8.086;2024-03-25T01:55:42;3.90;99.90
28069;DHT22;15382;47.578;8.086;2024-03-25T02:05:43;3.90;99.90
28069;DHT22;15382;47.578;8.086;2024-03-25T02:15:44;3.90;99.90
28069;DHT22;15382;47.578;8.086;2024-03-25T02:25:51;3.90;99.90
28069;DHT22;15382;47.578;8.086;2024-03-25T02:35:52;4.00;99.90
28069;DHT22;15382;47.578;8.086;2024-03-25T02:45:53;4.00;99.90
28069;DHT22;15382;47.578;8.086;2024-03-25T02:55:53;4.00;99.90
28069;DHT22;15382;47.578;8.086;2024-03-25T03:05:54;4.00;99.90
28069;DHT22;15382;47.578;8.086;2024-03-25T03:15:55;3.80;99.90
28069;DHT22;15382;47.578;8.086;2024-03-25T03:25:55;3.50;99.90
28069;DHT22;15382;47.578;8.086;2024-03-25T03:35:57;3.10;99.90
28069;DHT22;15382;47.578;8.086;2024-03-25T03:45:58;2.90;99.90
28069;DHT22;15382;47.578;8.086;2024-03-25T03:55:59;2.70;99.90
28069;DHT22;15382;47.578;8.086;2024-03-25T04:06:06;2.10;99.90
28069;DHT22;15382;47.578;8.086;2024-03-25T04:16:07;1.90;99.90
28069;DHT22;15382;47.578;8.086;2024-03-25T04:26:08;2.00;99.90
28069;DHT22;15382;47.578;8.086;2024-03-25T04:36:09;2.00;99.90
28069;DHT22;15382;47.578;8.086;2024-03-25T04:46:09;2.20;99.90
28069;DHT22;15382;47.578;8.086;2024-03-25T04:56:10;1.70;99.90
28069;DHT22;15382;47.578;8.086;2024-03-25T05:06:11;1.50;99.90
28069;DHT22;15382;47.578;8.086;2024-03-25T05:16:11;1.70;99.90
28069;DHT22;15382;47.578;8.086;2024-03-25T05:26:12;1.60;99.90
28069;DHT22;15382;47.578;8.086;2024-03-25T05:36:13;1.30;99.90
28069;DHT22;15382;47.578;8.086;2024-03-25T05:46:13;1.60;99.90
28069;DHT22;15382;47.578;8.086;2024-03-25T05:56:14;1.80;99.90
28069;DHT22;15382;47.578;8.086;2024-03-25T06:06:15;2.00;99.90
28069;DHT22;15382;47.578;8.086;2024-03-25T06:16:16;2.20;99.90
28069;DHT22;15382;47.578;8.086;2024-03-25T06:26:16;2.10;99.90
28069;DHT22;15382;47.578;8.086;2024-03-25T06:36:18;2.70;99.90
28069;DHT22;15382;47.578;8.086;2024-03-25T06:46:19;3.00;99.90
28069;DHT22;15382;47.578;8.086;2024-03-25T06:56:19;3.30;99.90
28069;DHT22;15382;47.578;8.086;2024-03-25T07:06:20;3.60;99.90
28069;DHT22;15382;47.578;8.086;2024-03-25T07:16:21;3.70;99.90
28069;DHT22;15382;47.578;8.086;2024-03-25T07:26:22;4.20;99.90
28069;DHT22;15382;47.578;8.086;2024-03-25T07:36:22;4.10;99.90
28069;DHT22;15382;47.578;8.086;2024-03-25T07:46:23;4.40;99.90
28069;DHT22;15382;47.578;8.086;2024-03-25T07:56:24;4.60;99.90
28069;DHT22;15382;47.578;8.086;2024-03-25T08:06:25;5.70;99.90
28069;DHT22;15382;47.578;8.086;2024-03-25T08:16:25;7.00;99.90
28069;DHT22;15382;47.578;8.086;2024-03-25T08:26:26;8.10;99.90
28069;DHT22;15382;47.578;8.086;2024-03-25T08:36:27;8.20;99.90
28069;DHT22;15382;47.578;8.086;2024-03-25T08:46:27;8.90;99.90
28069;DHT22;15382;47.578;8.086;2024-03-25T08:56:28;9.40;99.90
28069;DHT22;15382;47.578;8.086;2024-03-25T09:06:30;9.80;99.90
28069;DHT22;15382;47.578;8.086;2024-03-25T09:16:31;11.10;99.90
28069;DHT22;15382;47.578;8.086;2024-03-25T09:26:32;11.50;99.90
28069;DHT22;15382;47.578;8.086;2024-03-25T09:36:33;10.50;99.90
28069;DHT22;15382;47.578;8.086;2024-03-25T09:46:33;11.20;99.90
28069;DHT22;15382;47.578;8.086;2024-03-25T09:56:35;10.40;99.90
28069;DHT22;15382;47.578;8.086;2024-03-25T10:06:36;11.60;99.90
28069;DHT22;15382;47.578;8.086;2024-03-25T10:16:37;12.30;99.90
28069;DHT22;15382;47.578;8.086;2024-03-25T10:26:38;11.90;99.90
28069;DHT22;15382;47.578;8.086;2024-03-25T10:36:39;13.90;99.90
28069;DHT22;15382;47.578;8.086;2024-03-25T10:46:40;13.90;99.90
28069;DHT22;15382;47.578;8.086;2024-03-25T10:56:41;13.30;99.90
28069;DHT22;15382;47.578;8.086;2024-03-25T11:06:41;13.60;99.90
28069;DHT22;15382;47.578;8.086;2024-03-25T11:16:43;13.00;99.90
28069;DHT22;15382;47.578;8.086;2024-03-25T11:26:44;12.90;99.90
28069;DHT22;15382;47.578;8.086;2024-03-25T11:36:44;12.30;99.90
28069;DHT22;15382;47.578;8.086;2024-03-25T11:46:46;12.80;99.90
28069;DHT22;15382;47.578;8.086;2024-03-25T11:56:47;14.10;99.90
28069;DHT22;15382;47.578;8.086;2024-03-25T12:06:48;13.60;99.90
28069;DHT22;15382;47.578;8.086;2024-03-25T12:16:49;13.10;99.90
28069;DHT22;15382;47.578;8.086;2024-03-25T12:26:51;13.70;99.90
28069;DHT22;15382;47.578;8.086;2024-03-25T12:37:00;14.50;99.90
28069;DHT22;15382;47.578;8.086;2024-03-25T12:47:00;14.30;99.90
28069;DHT22;15382;47.578;8.086;2024-03-25T12:57:01;14.50;99.90
28069;DHT22;15382;47.578;8.086;2024-03-25T13:07:02;14.70;99.90
28069;DHT22;15382;47.578;8.086;2024-03-25T13:17:02;14.40;99.90
28069;DHT22;15382;47.578;8.086;2024-03-25T13:27:03;14.60;99.90
28069;DHT22;15382;47.578;8.086;2024-03-25T13:37:04;14.60;99.90
28069;DHT22;15382;47.578;8.086;2024-03-25T13:47:05;15.40;99.90
28069;DHT22;15382;47.578;8.086;2024-03-25T13:57:06;14.90;99.90
28069;DHT22;15382;47.578;8.086;2024-03-25T14:07:06;14.40;99.90
28069;DHT22;15382;47.578;8.086;2024-03-25T14:17:07;14.80;99.90
28069;DHT22;15382;47.578;8.086;2024-03-25T14:27:08;14.30;99.90
28069;DHT22;15382;47.578;8.086;2024-03-25T14:37:08;14.70;99.90
28069;DHT22;15382;47.578;8.086;2024-03-25T14:47:09;15.10;99.90
28069;DHT22;15382;47.578;8.086;2024-03-25T14:57:09;14.40;99.90
28069;DHT22;15382;47.578;8.086;2024-03-25T15:07:10;14.50;99.90
28069;DHT22;15382;47.578;8.086;2024-03-25T15:17:11;15.80;99.90
28069;DHT22;15382;47.578;8.086;2024-03-25T15:27:12;14.30;99.90
28069;DHT22;15382;47.578;8.086;2024-03-25T15:37:12;14.00;99.90
28069;DHT22;15382;47.578;8.086;2024-03-25T15:47:13;14.10;99.90
28069;DHT22;15382;47.578;8.086;2024-03-25T15:57:13;14.10;99.90
28069;DHT22;15382;47.578;8.086;2024-03-25T16:07:14;13.20;99.90
28069;DHT22;15382;47.578;8.086;2024-03-25T16:17:15;12.60;99.90
28069;DHT22;15382;47.578;8.086;2024-03-25T16:27:16;12.30;99.90
28069;DHT22;15382;47.578;8.086;2024-03-25T16:37:16;11.90;99.90
28069;DHT22;15382;47.578;8.086;2024-03-25T16:47:17;11.80;99.90
28069;DHT22;15382;47.578;8.086;2024-03-25T16:57:18;11.50;99.90
28069;DHT22;15382;47.578;8.086;2024-03-25T17:07:18;11.10;99.90
28069;DHT22;15382;47.578;8.086;2024-03-25T17:17:19;10.90;99.90
28069;DHT22;15382;47.578;8.086;2024-03-25T17:27:20;10.50;99.90
28069;DHT22;15382;47.578;8.086;2024-03-25T17:37:20;10.20;99.90
28069;DHT22;15382;47.578;8.086;2024-03-25T17:47:21;9.80;99.90
28069;DHT22;15382;47.578;8.086;2024-03-25T17:57:22;9.20;99.90
28069;DHT22;15382;47.578;8.086;2024-03-25T18:07:23;8.90;99.90
28069;DHT22;15382;47.578;8.086;2024-03-25T18:17:23;8.60;99.90
28069;DHT22;15382;47.578;8.086;2024-03-25T18:27:24;8.40;99.90
28069;DHT22;15382;47.578;8.086;2024-03-25T18:37:27;8.10;99.90
28069;DHT22;15382;47.578;8.086;2024-03-25T18:47:28;8.00;99.90
28069;DHT22;15382;47.578;8.086;2024-03-25T18:57:28;8.00;99.90
28069;DHT22;15382;47.578;8.086;2024-03-25T19:07:29;8.00;99.90
28069;DHT22;15382;47.578;8.086;2024-03-25T19:17:30;7.90;99.90
28069;DHT22;15382;47.578;8.086;2024-03-25T19:27:30;7.70;99.90
28069;DHT22;15382;47.578;8.086;2024-03-25T19:37:34;7.70;99.90
28069;DHT22;15382;47.578;8.086;2024-03-25T19:47:34;7.80;99.90
28069;DHT22;15382;47.578;8.086;2024-03-25T19:57:35;7.60;99.90
28069;DHT22;15382;47.578;8.086;2024-03-25T20:07:36;7.50;99.90
28069;DHT22;15382;47.578;8.086;2024-03-25T20:17:37;7.40;99.90
28069;DHT22;15382;47.578;8.086;2024-03-25T20:27:37;7.30;99.90
28069;DHT22;15382;47.578;8.086;2024-03-25T20:37:38;7.30;99.90
28069;DHT22;15382;47.578;8.086;2024-03-25T20:47:39;7.20;99.90
28069;DHT22;15382;47.578;8.086;2024-03-25T20:57:39;7.00;99.90
28069;DHT22;15382;47.578;8.086;2024-03-25T21:07:40;7.00;99.90
28069;DHT22;15382;47.578;8.086;2024-03-25T21:17:41;7.10;99.90
28069;DHT22;15382;47.578;8.086;2024-03-25T21:27:41;7.20;99.90
28069;DHT22;15382;47.578;8.086;2024-03-25T21:37:42;7.20;99.90
28069;DHT22;15382;47.578;8.086;2024-03-25T21:47:43;7.20;99.90
28069;DHT22;15382;47.578;8.086;2024-03-25T21:57:43;7.20;99.90
28069;DHT22;15382;47.578;8.086;2024-03-25T22:07:45;7.30;99.90
28069;DHT22;15382;47.578;8.086;2024-03-25T22:17:46;7.20;99.90
28069;DHT22;15382;47.578;8.086;2024-03-25T22:27:50;7.10;99.90
28069;DHT22;15382;47.578;8.086;2024-03-25T22:37:50;7.00;99.90
28069;DHT22;15382;47.578;8.086;2024-03-25T22:47:51;7.00;99.90
28069;DHT22;15382;47.578;8.086;2024-03-25T22:57:52;7.00;99.90
28069;DHT22;15382;47.578;8.086;2024-03-25T23:07:52;7.00;99.90
28069;DHT22;15382;47.578;8.086;2024-03-25T23:17:53;7.00;99.90
28069;DHT22;15382;47.578;8.086;2024-03-25T23:27:54;6.90;99.90
28069;DHT22;15382;47.578;8.086;2024-03-25T23:37:54;6.80;99.90
28069;DHT22;15382;47.578;8.086;2024-03-25T23:47:55;6.80;99.90
28069;DHT22;15382;47.578;8.086;2024-03-25T23:57:57;6.80;99.90
